createdAt,value
2022-11-25T00:01:13.081Z,3.15
2022-11-25T00:03:40.418Z,3.80
2022-11-25T00:06:15.750Z,3.22
2022-11-25T00:08:43.335Z,3.55
2022-11-25T00:11:10.478Z,2.65
2022-11-25T00:13:37.479Z,3.33
2022-11-25T00:16:05.807Z,4.10
2022-11-25T00:18:32.268Z,3.38
2022-11-25T00:20:59.146Z,3.42
2022-11-25T00:23:29.192Z,3.35
2022-11-25T00:26:08.855Z,2.97
2022-11-25T00:28:35.307Z,3.35
2022-11-25T00:31:12.939Z,3.35
2022-11-25T00:33:39.962Z,3.33
2022-11-25T00:36:08.635Z,3.10
2022-11-25T00:38:35.015Z,3.20
2022-11-25T00:41:20.067Z,3.20
2022-11-25T00:44:05.081Z,3.10
2022-11-25T00:46:31.481Z,3.60
2022-11-25T00:48:57.886Z,3.45
2022-11-25T00:51:24.290Z,3.25
2022-11-25T00:53:53.491Z,3.67
2022-11-25T00:56:23.987Z,3.22
2022-11-25T00:58:50.422Z,3.85
2022-11-25T01:01:16.886Z,3.78
2022-11-25T01:03:43.284Z,3.65
2022-11-25T01:06:11.058Z,3.20
2022-11-25T01:08:38.527Z,3.85
2022-11-25T01:11:07.666Z,3.80
2022-11-25T01:13:34.435Z,4.35
2022-11-25T01:16:02.407Z,3.92
2022-11-25T01:18:29.350Z,3.45
2022-11-25T01:20:55.775Z,3.55
2022-11-25T01:23:22.135Z,2.95
2022-11-25T01:25:48.503Z,3.88
2022-11-25T01:28:14.888Z,4.10
2022-11-25T01:30:41.484Z,3.17
2022-11-25T01:33:07.915Z,3.47
2022-11-25T01:35:37.606Z,3.90
2022-11-25T01:38:04.064Z,3.90
2022-11-25T01:40:30.476Z,3.65
2022-11-25T01:42:56.853Z,3.58
2022-11-25T01:45:25.540Z,3.22
2022-11-25T01:47:57.667Z,3.15
2022-11-25T01:50:24.840Z,3.83
2022-11-25T01:52:52.149Z,3.83
2022-11-25T01:55:24.785Z,3.47
2022-11-25T01:58:12.121Z,3.92
2022-11-25T02:00:38.996Z,4.00
2022-11-25T02:03:06.017Z,3.80
2022-11-25T02:05:37.458Z,4.15
2022-11-25T02:08:04.626Z,3.90
2022-11-25T02:10:32.193Z,3.70
2022-11-25T02:12:59.006Z,3.42
2022-11-25T02:15:25.697Z,4.25
2022-11-25T02:17:52.584Z,4.03
2022-11-25T02:20:21.499Z,4.25
2022-11-25T02:22:58.157Z,3.60
2022-11-25T02:25:38.865Z,4.45
2022-11-25T02:28:09.345Z,3.53
2022-11-25T02:30:36.182Z,4.80
2022-11-25T02:33:02.592Z,4.65
2022-11-25T02:35:33.575Z,4.68
2022-11-25T02:38:04.278Z,4.28
2022-11-25T02:40:31.026Z,4.20
2022-11-25T02:42:59.680Z,4.30
2022-11-25T02:45:35.724Z,3.72
2022-11-25T02:48:02.170Z,4.38
2022-11-25T02:50:28.529Z,4.13
2022-11-25T02:52:54.930Z,3.70
2022-11-25T02:55:21.343Z,4.55
2022-11-25T02:57:47.840Z,3.97
2022-11-25T03:00:15.007Z,4.10
2022-11-25T03:02:41.538Z,3.97
2022-11-25T03:05:08.061Z,3.85
2022-11-25T03:07:34.568Z,4.15
2022-11-25T03:10:00.974Z,3.97
2022-11-25T03:12:28.978Z,3.90
2022-11-25T03:14:55.678Z,4.60
2022-11-25T03:17:22.094Z,3.47
2022-11-25T03:19:48.462Z,4.03
2022-11-25T03:22:14.902Z,3.78
2022-11-25T03:24:41.315Z,4.55
2022-11-25T03:27:07.778Z,4.13
2022-11-25T03:29:34.149Z,4.13
2022-11-25T03:32:03.258Z,4.80
2022-11-25T03:34:31.890Z,3.92
2022-11-25T03:36:58.479Z,4.25
2022-11-25T03:39:24.978Z,5.05
2022-11-25T03:41:51.350Z,4.75
2022-11-25T03:44:17.734Z,4.18
2022-11-25T03:46:44.169Z,4.85
2022-11-25T03:49:10.531Z,4.68
2022-11-25T03:51:37.009Z,4.00
2022-11-25T03:54:03.492Z,5.43
2022-11-25T03:56:29.915Z,4.63
2022-11-25T03:58:56.406Z,5.50
2022-11-25T04:01:22.940Z,4.75
2022-11-25T04:03:49.361Z,5.03
2022-11-25T04:06:16.110Z,4.30
2022-11-25T04:08:42.497Z,5.13
2022-11-25T04:11:08.873Z,4.35
2022-11-25T04:13:35.377Z,4.93
2022-11-25T04:16:01.731Z,4.32
2022-11-25T04:18:28.190Z,5.00
2022-11-25T04:20:54.551Z,3.97
2022-11-25T04:23:20.943Z,4.07
2022-11-25T04:25:50.349Z,4.47
2022-11-25T04:28:16.909Z,5.28
2022-11-25T04:30:43.334Z,4.20
2022-11-25T04:33:09.710Z,3.38
2022-11-25T04:35:36.062Z,3.70
2022-11-25T04:38:02.510Z,4.00
2022-11-25T04:40:28.865Z,3.50
2022-11-25T04:43:02.440Z,3.85
2022-11-25T04:45:51.512Z,3.35
2022-11-25T04:48:17.719Z,3.20
2022-11-25T04:50:44.318Z,3.00
2022-11-25T04:53:10.846Z,3.35
2022-11-25T04:55:37.318Z,2.83
2022-11-25T04:58:04.123Z,2.88
2022-11-25T05:00:30.555Z,2.60
2022-11-25T05:02:57.030Z,2.72
2022-11-25T05:05:23.476Z,2.67
2022-11-25T05:07:50.101Z,2.80
2022-11-25T05:10:16.607Z,2.65
2022-11-25T05:12:42.984Z,2.53
2022-11-25T05:15:10.031Z,2.47
2022-11-25T05:17:37.017Z,2.67
2022-11-25T05:20:04.757Z,2.53
2022-11-25T05:22:32.657Z,2.63
2022-11-25T05:24:59.231Z,2.40
2022-11-25T05:27:26.705Z,2.60
2022-11-25T05:29:56.134Z,2.60
2022-11-25T05:32:23.370Z,2.55
2022-11-25T05:34:49.788Z,3.00
2022-11-25T05:37:19.929Z,2.40
2022-11-25T05:39:50.504Z,2.47
2022-11-25T05:42:16.865Z,2.80
2022-11-25T05:44:43.229Z,2.42
2022-11-25T05:47:09.607Z,2.60
2022-11-25T05:49:36.053Z,2.40
2022-11-25T05:52:02.508Z,3.25
2022-11-25T05:54:28.890Z,2.50
2022-11-25T05:56:55.265Z,3.17
2022-11-25T05:59:21.632Z,2.83
2022-11-25T06:01:48.046Z,2.70
2022-11-25T06:04:14.538Z,3.67
2022-11-25T06:06:40.908Z,2.80
2022-11-25T06:09:07.246Z,2.83
2022-11-25T06:11:34.092Z,3.03
2022-11-25T06:14:02.153Z,2.88
2022-11-25T06:16:28.609Z,3.25
2022-11-25T06:18:55.091Z,2.70
2022-11-25T06:21:21.695Z,2.95
2022-11-25T06:23:48.116Z,2.65
2022-11-25T06:26:23.810Z,3.10
2022-11-25T06:28:53.687Z,2.83
2022-11-25T06:31:22.542Z,3.22
2022-11-25T06:33:51.161Z,3.15
2022-11-25T06:36:18.748Z,3.13
2022-11-25T06:38:49.726Z,3.63
2022-11-25T06:41:16.398Z,3.50
2022-11-25T06:43:42.809Z,3.22
2022-11-25T06:46:11.866Z,3.42
2022-11-25T06:48:38.551Z,3.50
2022-11-25T06:51:07.091Z,3.50
2022-11-25T06:53:34.974Z,3.70
2022-11-25T06:56:03.415Z,4.07
2022-11-25T06:58:36.566Z,3.90
2022-11-25T07:01:08.257Z,3.67
2022-11-25T07:03:35.180Z,4.53
2022-11-25T07:06:01.696Z,3.83
2022-11-25T07:08:33.571Z,4.15
2022-11-25T07:11:31.445Z,4.25
2022-11-25T07:14:03.707Z,4.30
2022-11-25T07:16:30.386Z,4.55
2022-11-25T07:18:59.131Z,4.05
2022-11-25T07:21:25.775Z,4.32
2022-11-25T07:23:52.875Z,4.32
2022-11-25T07:26:24.873Z,4.93
2022-11-25T07:28:52.475Z,3.72
2022-11-25T07:31:24.403Z,4.80
2022-11-25T07:33:53.146Z,4.93
2022-11-25T07:36:19.525Z,4.40
2022-11-25T07:38:46.902Z,4.70
2022-11-25T07:41:16.187Z,4.55
2022-11-25T07:43:50.750Z,4.90
2022-11-25T07:46:27.118Z,4.47
2022-11-25T07:48:59.039Z,4.75
2022-11-25T07:51:28.694Z,4.53
2022-11-25T07:53:56.360Z,4.78
2022-11-25T07:56:23.219Z,4.38
2022-11-25T07:58:49.774Z,4.40
2022-11-25T08:01:17.461Z,4.88
2022-11-25T08:03:44.659Z,4.75
2022-11-25T08:06:13.858Z,4.40
2022-11-25T08:08:41.291Z,4.80
2022-11-25T08:11:10.145Z,9.80
2022-11-25T08:13:36.858Z,4.57
2022-11-25T08:16:03.698Z,4.30
2022-11-25T08:18:30.237Z,5.38
2022-11-25T08:21:00.888Z,4.90
2022-11-25T08:23:27.775Z,4.10
2022-11-25T08:25:54.219Z,4.25
2022-11-25T08:28:20.639Z,3.80
2022-11-25T08:30:47.120Z,4.35
2022-11-25T08:33:13.548Z,4.15
2022-11-25T08:35:39.959Z,4.03
2022-11-25T08:38:08.223Z,4.25
2022-11-25T08:40:36.282Z,3.90
2022-11-25T08:43:03.778Z,4.60
2022-11-25T08:45:30.602Z,4.03
2022-11-25T08:47:57.835Z,4.20
2022-11-25T08:50:27.122Z,4.90
2022-11-25T08:52:53.525Z,3.97
2022-11-25T08:55:21.366Z,4.18
2022-11-25T08:57:47.785Z,3.83
2022-11-25T09:00:14.850Z,3.83
2022-11-25T09:02:41.617Z,4.15
2022-11-25T09:05:08.531Z,3.38
2022-11-25T09:07:34.973Z,3.33
2022-11-25T09:10:01.544Z,4.22
2022-11-25T09:12:27.974Z,3.30
2022-11-25T09:14:54.343Z,3.38
2022-11-25T09:17:20.687Z,3.28
2022-11-25T09:19:47.160Z,3.22
2022-11-25T09:22:13.600Z,5.20
2022-11-25T09:24:41.612Z,4.03
2022-11-25T09:27:08.013Z,3.42
2022-11-25T09:29:34.655Z,3.33
2022-11-25T09:32:01.430Z,2.90
2022-11-25T09:34:27.944Z,3.00
2022-11-25T09:36:54.436Z,3.22
2022-11-25T09:39:20.938Z,3.53
2022-11-25T09:42:57.170Z,3.47
2022-11-25T09:45:46.538Z,3.47
2022-11-25T09:48:18.915Z,3.03
2022-11-25T09:51:03.432Z,3.28
2022-11-25T09:53:43.972Z,3.13
2022-11-25T09:56:22.565Z,2.78
2022-11-25T09:58:53.586Z,3.47
2022-11-25T10:01:23.434Z,2.95
2022-11-25T10:06:41.048Z,2.58
2022-11-25T10:09:17.010Z,2.80
2022-11-25T10:11:51.295Z,2.78
2022-11-25T10:14:29.097Z,2.95
2022-11-25T10:17:03.889Z,2.70
2022-11-25T10:19:52.121Z,2.67
2022-11-25T10:22:25.160Z,2.40
2022-11-25T10:24:54.912Z,3.10
2022-11-25T10:27:33.355Z,2.70
2022-11-25T10:30:14.490Z,2.72
2022-11-25T10:32:44.567Z,2.28
2022-11-25T10:35:41.551Z,2.28
2022-11-25T10:38:18.573Z,2.47
2022-11-25T10:40:48.493Z,2.10
2022-11-25T10:43:15.057Z,2.38
2022-11-25T10:45:49.231Z,2.78
2022-11-25T10:48:44.027Z,2.25
2022-11-25T10:51:27.287Z,2.40
2022-11-25T10:54:27.495Z,1.80
2022-11-25T10:57:00.124Z,2.42
2022-11-25T10:59:35.655Z,2.40
2022-11-25T11:02:21.550Z,3.08
2022-11-25T11:05:00.125Z,2.78
2022-11-25T11:07:30.781Z,2.78
2022-11-25T11:10:15.187Z,2.20
2022-11-25T11:13:02.027Z,2.38
2022-11-25T11:15:31.332Z,2.80
2022-11-25T11:18:00.405Z,2.35
2022-11-25T11:20:31.225Z,2.30
2022-11-25T11:23:07.042Z,2.72
2022-11-25T11:25:40.007Z,2.65
2022-11-25T11:28:24.658Z,2.65
2022-11-25T11:30:59.874Z,2.50
2022-11-25T11:33:34.092Z,2.88
2022-11-25T11:36:16.961Z,2.95
2022-11-25T11:39:11.631Z,2.17
2022-11-25T11:44:56.026Z,2.97
2022-11-25T11:47:33.083Z,2.70
2022-11-25T11:50:17.187Z,2.42
2022-11-25T11:52:47.266Z,2.47
2022-11-25T11:56:26.701Z,3.13
2022-11-25T11:59:00.182Z,3.33
2022-11-25T12:01:46.565Z,2.40
2022-11-25T12:04:36.674Z,2.72
2022-11-25T12:07:17.988Z,2.90
2022-11-25T12:09:51.439Z,2.30
2022-11-25T12:12:19.298Z,2.28
2022-11-25T12:14:50.943Z,2.35
2022-11-25T12:17:21.819Z,2.38
2022-11-25T12:20:11.429Z,2.33
2022-11-25T12:22:46.803Z,2.75
2022-11-25T12:25:20.182Z,2.92
2022-11-25T12:27:47.804Z,2.70
2022-11-25T12:30:20.839Z,3.00
2022-11-25T12:32:57.167Z,2.40
2022-11-25T12:35:58.864Z,3.03
2022-11-25T12:38:33.756Z,2.88
2022-11-25T12:41:32.576Z,2.75
2022-11-25T12:44:05.438Z,2.83
2022-11-25T12:46:35.246Z,3.22
2022-11-25T12:49:02.195Z,2.60
2022-11-25T12:51:34.655Z,2.58
2022-11-25T12:54:19.762Z,2.97
2022-11-25T12:57:07.615Z,2.70
2022-11-25T13:00:40.573Z,2.38
2022-11-25T13:03:41.038Z,3.17
2022-11-25T13:06:24.302Z,3.15
2022-11-25T13:09:02.599Z,2.85
2022-11-25T13:11:56.035Z,3.08
2022-11-25T13:14:54.092Z,3.05
2022-11-25T13:17:22.398Z,2.50
2022-11-25T13:19:49.050Z,3.15
2022-11-25T13:22:18.403Z,2.33
2022-11-25T13:24:44.771Z,2.80
2022-11-25T13:27:38.213Z,2.78
2022-11-25T13:30:05.206Z,3.03
2022-11-25T13:32:34.860Z,2.85
2022-11-25T13:35:24.493Z,2.58
2022-11-25T13:37:51.314Z,2.20
2022-11-25T13:40:37.279Z,2.95
2022-11-25T13:43:04.046Z,2.63
2022-11-25T13:45:36.157Z,2.72
2022-11-25T13:48:27.450Z,2.25
2022-11-25T13:51:22.771Z,2.38
2022-11-25T13:53:58.222Z,2.47
2022-11-25T13:56:28.338Z,2.72
2022-11-25T13:59:10.068Z,2.67
2022-11-25T14:01:41.836Z,2.50
2022-11-25T14:04:11.080Z,2.63
2022-11-25T14:07:03.355Z,2.60
2022-11-25T14:10:11.698Z,2.55
2022-11-25T14:12:40.331Z,2.83
2022-11-25T14:15:36.115Z,2.55
2022-11-25T14:18:36.883Z,2.83
2022-11-25T14:21:41.693Z,3.10
2022-11-25T14:24:50.422Z,2.97
2022-11-25T14:27:25.270Z,2.70
2022-11-25T14:30:05.492Z,2.50
2022-11-25T14:32:39.938Z,3.10
2022-11-25T14:35:34.241Z,2.60
2022-11-25T14:38:07.424Z,3.20
2022-11-25T14:40:38.766Z,2.80
2022-11-25T14:43:08.727Z,3.30
2022-11-25T14:45:35.671Z,3.20
2022-11-25T14:48:21.818Z,2.97
2022-11-25T14:51:21.134Z,2.83
2022-11-25T14:53:48.983Z,2.70
2022-11-25T14:56:29.895Z,2.80
2022-11-25T14:58:58.077Z,2.92
2022-11-25T15:01:29.749Z,3.00
2022-11-25T15:04:10.792Z,2.70
2022-11-25T15:06:39.403Z,3.35
2022-11-25T15:09:29.961Z,4.18
2022-11-25T15:12:02.651Z,3.28
2022-11-25T15:14:32.047Z,3.28
2022-11-25T15:16:59.135Z,3.90
2022-11-25T15:19:33.258Z,6.28
2022-11-25T15:27:27.404Z,3.65
2022-11-25T15:29:55.384Z,3.70
2022-11-25T15:32:26.200Z,3.97
2022-11-25T15:34:53.944Z,3.35
2022-11-25T15:37:20.345Z,3.42
2022-11-25T15:39:46.828Z,3.03
2022-11-25T15:42:17.642Z,3.25
2022-11-25T15:44:51.472Z,3.90
2022-11-25T15:47:22.320Z,3.50
2022-11-25T15:50:03.605Z,3.25
2022-11-25T15:52:32.139Z,3.10
2022-11-25T15:55:27.858Z,3.03
2022-11-25T15:57:54.719Z,3.05
2022-11-25T16:00:23.197Z,3.20
2022-11-25T16:02:52.123Z,3.53
2022-11-25T16:05:27.375Z,3.20
2022-11-25T16:07:53.748Z,3.10
2022-11-25T16:10:24.329Z,3.10
2022-11-25T16:13:22.754Z,3.45
2022-11-25T16:16:07.737Z,3.17
2022-11-25T16:18:41.205Z,3.25
2022-11-25T16:21:11.710Z,6.50
2022-11-25T16:23:41.983Z,3.17
2022-11-25T16:26:11.463Z,3.25
2022-11-25T16:28:38.992Z,3.33
2022-11-25T16:31:05.645Z,2.85
2022-11-25T16:33:32.055Z,3.50
2022-11-25T16:35:58.457Z,4.53
2022-11-25T16:38:24.856Z,3.92
2022-11-25T16:40:52.812Z,4.32
2022-11-25T16:43:23.468Z,3.80
2022-11-25T16:45:52.027Z,3.78
2022-11-25T16:48:21.127Z,4.55
2022-11-25T16:50:48.526Z,4.68
2022-11-25T16:53:15.056Z,5.05
2022-11-25T16:55:44.659Z,4.60
2022-11-25T16:58:20.180Z,3.85
2022-11-25T17:00:56.248Z,3.70
2022-11-25T17:03:26.103Z,4.22
2022-11-25T17:05:55.005Z,3.90
2022-11-25T17:08:21.938Z,4.57
2022-11-25T17:10:49.702Z,4.47
2022-11-25T17:13:23.145Z,4.65
2022-11-25T17:15:49.868Z,5.40
2022-11-25T17:18:19.134Z,4.80
2022-11-25T17:20:46.536Z,5.30
2022-11-25T17:23:15.051Z,6.32
2022-11-25T17:25:43.410Z,5.28
2022-11-25T17:28:15.340Z,5.45
2022-11-25T17:30:42.146Z,6.07
2022-11-25T17:33:13.316Z,5.18
2022-11-25T17:35:39.774Z,5.53
2022-11-25T17:38:12.291Z,4.60
2022-11-25T17:40:38.754Z,4.47
2022-11-25T17:43:05.612Z,4.88
2022-11-25T17:45:32.069Z,5.13
2022-11-25T17:47:58.507Z,4.68
2022-11-25T17:50:26.343Z,4.70
2022-11-25T17:52:53.079Z,5.18
2022-11-25T17:55:21.575Z,5.05
2022-11-25T17:57:51.497Z,5.30
2022-11-25T18:00:20.681Z,6.50
2022-11-25T18:02:47.352Z,6.65
2022-11-25T18:05:24.973Z,8.15
2022-11-25T18:07:51.788Z,7.03
2022-11-25T18:10:21.486Z,6.05
2022-11-25T18:12:50.275Z,7.78
2022-11-25T18:15:30.751Z,9.00
2022-11-25T18:18:03.562Z,9.25
2022-11-25T18:20:32.736Z,9.15
2022-11-25T18:22:59.956Z,11.02
2022-11-25T18:25:30.672Z,11.13
2022-11-25T18:27:57.983Z,12.02
2022-11-25T18:30:27.526Z,10.32
2022-11-25T18:32:56.099Z,12.75
2022-11-25T18:35:35.710Z,10.80
2022-11-25T18:38:03.271Z,10.77
2022-11-25T18:40:29.947Z,9.88
2022-11-25T18:42:57.872Z,10.52
2022-11-25T18:45:27.109Z,10.93
2022-11-25T18:47:53.619Z,11.05
2022-11-25T18:50:22.191Z,10.73
2022-11-25T18:52:48.984Z,10.73
2022-11-25T18:55:17.080Z,10.35
2022-11-25T18:57:45.250Z,11.00
2022-11-25T19:00:32.852Z,8.30
2022-11-25T19:02:59.960Z,8.30
2022-11-25T19:05:31.390Z,6.18
2022-11-25T19:07:58.195Z,8.85
2022-11-25T19:10:27.648Z,8.55
2022-11-25T19:13:06.325Z,8.18
2022-11-25T19:15:34.037Z,6.78
2022-11-25T19:18:02.328Z,7.20
2022-11-25T19:20:30.098Z,6.18
2022-11-25T19:23:00.627Z,7.50
2022-11-25T19:25:28.391Z,6.47
2022-11-25T19:27:57.616Z,9.65
2022-11-25T19:30:27.467Z,7.45
2022-11-25T19:32:56.570Z,7.18
2022-11-25T19:35:27.106Z,7.45
2022-11-25T19:37:54.555Z,5.68
2022-11-25T19:40:22.299Z,7.10
2022-11-25T19:42:48.800Z,7.90
2022-11-25T19:45:17.236Z,6.88
2022-11-25T19:47:45.136Z,8.18
2022-11-25T19:50:19.772Z,6.55
2022-11-25T19:52:46.615Z,7.32
2022-11-25T19:55:15.326Z,5.65
2022-11-25T19:57:42.267Z,6.45
2022-11-25T20:00:09.203Z,6.85
2022-11-25T20:02:35.676Z,6.28
2022-11-25T20:05:03.605Z,8.15
2022-11-25T20:07:30.969Z,7.55
2022-11-25T20:10:07.572Z,7.38
2022-11-25T20:12:33.972Z,7.28
2022-11-25T20:15:00.584Z,6.80
2022-11-25T20:17:29.375Z,7.97
2022-11-25T20:19:58.274Z,6.97
2022-11-25T20:22:27.851Z,8.30
2022-11-25T20:24:54.982Z,6.90
2022-11-25T20:27:25.774Z,7.65
2022-11-25T20:29:52.280Z,6.50
2022-11-25T20:32:27.975Z,6.70
2022-11-25T20:34:55.416Z,7.45
2022-11-25T20:37:24.739Z,6.80
2022-11-25T20:39:52.919Z,7.40
2022-11-25T20:42:20.256Z,6.80
2022-11-25T20:44:47.458Z,6.80
2022-11-25T20:47:16.651Z,7.35
2022-11-25T20:49:44.439Z,9.25
2022-11-25T20:52:38.768Z,8.20
2022-11-25T20:55:15.734Z,7.47
2022-11-25T20:57:42.757Z,7.72
2022-11-25T21:00:17.417Z,6.82
2022-11-25T21:02:43.935Z,6.57
2022-11-25T21:05:10.475Z,6.95
2022-11-25T21:07:36.979Z,6.32
2022-11-25T21:10:18.866Z,6.18
2022-11-25T21:12:45.318Z,8.55
2022-11-25T21:15:16.547Z,9.30
2022-11-25T21:17:43.831Z,8.02
2022-11-25T21:20:11.052Z,7.88
2022-11-25T21:22:41.371Z,8.05
2022-11-25T21:25:12.684Z,7.13
2022-11-25T21:27:39.787Z,7.00
2022-11-25T21:30:07.158Z,6.82
2022-11-25T21:32:34.393Z,8.13
2022-11-25T21:35:03.795Z,8.82
2022-11-25T21:37:36.379Z,8.00
2022-11-25T21:40:03.870Z,8.68
2022-11-25T21:42:32.023Z,8.48
2022-11-25T21:44:58.541Z,7.93
2022-11-25T21:47:28.239Z,8.13
2022-11-25T21:49:55.151Z,6.82
2022-11-25T21:52:21.527Z,5.80
2022-11-25T21:54:47.974Z,7.25
2022-11-25T21:57:20.861Z,6.20
2022-11-25T21:59:47.682Z,6.35
2022-11-25T22:02:17.497Z,6.45
2022-11-25T22:04:43.865Z,7.00
2022-11-25T22:07:10.315Z,7.05
2022-11-25T22:09:36.828Z,6.93
2022-11-25T22:12:05.030Z,5.80
2022-11-25T22:14:39.855Z,6.28
2022-11-25T22:17:12.643Z,6.45
2022-11-25T22:19:39.118Z,6.13
2022-11-25T22:22:12.074Z,6.47
2022-11-25T22:24:38.565Z,6.40
2022-11-25T22:27:07.147Z,8.20
2022-11-25T22:29:35.453Z,7.00
2022-11-25T22:32:07.031Z,7.03
2022-11-25T22:34:36.569Z,6.70
2022-11-25T22:37:03.318Z,7.13
2022-11-25T22:39:29.680Z,6.22
2022-11-25T22:42:01.223Z,6.68
2022-11-25T22:44:35.128Z,6.10
2022-11-25T22:47:02.424Z,6.07
2022-11-25T22:49:31.695Z,6.07
2022-11-25T22:51:58.664Z,6.20
2022-11-25T22:54:25.210Z,6.03
2022-11-25T22:56:52.005Z,6.80
2022-11-25T22:59:18.411Z,6.07
2022-11-25T23:01:44.996Z,5.50
2022-11-25T23:04:16.211Z,5.78
2022-11-25T23:06:42.698Z,5.80
2022-11-25T23:09:18.104Z,6.20
2022-11-25T23:11:45.284Z,6.47
2022-11-25T23:14:12.404Z,5.57
2022-11-25T23:16:40.155Z,6.35
2022-11-25T23:19:15.846Z,6.13
2022-11-25T23:21:44.392Z,6.07
2022-11-25T23:24:16.479Z,5.28
2022-11-25T23:26:43.595Z,6.00
2022-11-25T23:29:09.997Z,5.57
2022-11-25T23:31:37.457Z,5.50
2022-11-25T23:34:05.087Z,6.00
2022-11-25T23:36:42.839Z,6.10
2022-11-25T23:39:19.255Z,6.13
2022-11-25T23:41:45.771Z,5.60
2022-11-25T23:44:15.194Z,6.05
2022-11-25T23:46:41.780Z,6.40
2022-11-25T23:49:19.273Z,7.38
2022-11-25T23:51:45.891Z,6.95
2022-11-25T23:54:15.175Z,6.95
2022-11-25T23:56:41.614Z,6.45
2022-11-25T23:59:15.728Z,5.95
